createdAt,value
2019-01-10T00:00:29.438Z,4.03
2019-01-10T00:02:58.742Z,4.20
2019-01-10T00:05:28.376Z,4.30
2019-01-10T00:07:57.670Z,4.07
2019-01-10T00:10:26.910Z,3.97
2019-01-10T00:12:56.280Z,3.90
2019-01-10T00:15:25.543Z,4.20
2019-01-10T00:17:54.805Z,4.10
2019-01-10T00:20:24.109Z,3.50
2019-01-10T00:22:53.401Z,4.50
2019-01-10T00:25:22.674Z,4.60
2019-01-10T00:27:52.068Z,3.97
2019-01-10T00:30:21.401Z,3.90
2019-01-10T00:32:50.842Z,3.90
2019-01-10T00:35:20.133Z,3.77
2019-01-10T00:37:49.628Z,3.37
2019-01-10T00:40:20.055Z,3.98
2019-01-10T00:42:50.036Z,3.50
2019-01-10T00:45:19.654Z,3.60
2019-01-10T00:47:49.049Z,3.70
2019-01-10T00:50:23.094Z,3.83
2019-01-10T00:52:52.803Z,3.47
2019-01-10T00:55:22.108Z,3.60
2019-01-10T00:57:51.415Z,3.63
2019-01-10T01:00:23.085Z,3.60
2019-01-10T01:02:52.818Z,3.57
2019-01-10T01:05:22.418Z,3.60
2019-01-10T01:07:51.981Z,3.37
2019-01-10T01:10:23.640Z,3.67
2019-01-10T01:12:58.331Z,3.43
2019-01-10T01:15:24.440Z,3.90
2019-01-10T01:17:53.714Z,4.30
2019-01-10T01:20:24.384Z,4.50
2019-01-10T01:22:54.003Z,3.70
2019-01-10T01:25:23.279Z,3.70
2019-01-10T01:27:52.579Z,3.70
2019-01-10T01:30:25.713Z,3.77
2019-01-10T01:32:55.318Z,4.03
2019-01-10T01:35:24.624Z,4.53
2019-01-10T01:37:54.911Z,3.63
2019-01-10T01:40:24.245Z,3.87
2019-01-10T01:42:53.532Z,4.37
2019-01-10T01:45:22.957Z,3.97
2019-01-10T01:47:52.228Z,4.20
2019-01-10T01:50:23.338Z,3.90
2019-01-10T01:52:53.691Z,4.00
2019-01-10T01:55:23.654Z,3.90
2019-01-10T01:57:52.937Z,3.67
2019-01-10T02:00:24.189Z,3.70
2019-01-10T02:02:53.601Z,4.00
2019-01-10T02:05:22.898Z,3.83
2019-01-10T02:07:52.564Z,3.37
2019-01-10T02:10:24.815Z,3.67
2019-01-10T02:12:54.316Z,3.43
2019-01-10T02:15:23.715Z,3.90
2019-01-10T02:17:53.026Z,3.77
2019-01-10T02:20:22.569Z,3.93
2019-01-10T02:22:51.907Z,3.30
2019-01-10T02:25:22.060Z,3.43
2019-01-10T02:27:51.443Z,3.73
2019-01-10T02:30:24.151Z,3.90
2019-01-10T02:32:53.628Z,3.80
2019-01-10T02:35:23.340Z,3.73
2019-01-10T02:37:52.805Z,3.77
2019-01-10T02:40:22.098Z,3.57
2019-01-10T02:42:51.359Z,3.80
2019-01-10T02:45:20.717Z,3.63
2019-01-10T02:47:50.000Z,3.40
2019-01-10T02:50:21.391Z,4.27
2019-01-10T02:52:50.944Z,3.90
2019-01-10T02:55:20.266Z,4.00
2019-01-10T02:57:49.660Z,4.10
2019-01-10T03:00:21.215Z,4.33
2019-01-10T03:02:50.530Z,4.60
2019-01-10T03:05:20.179Z,4.50
2019-01-10T03:07:49.634Z,4.20
2019-01-10T03:10:22.443Z,4.40
2019-01-10T03:12:51.872Z,4.23
2019-01-10T03:15:21.115Z,4.57
2019-01-10T03:17:50.418Z,4.83
2019-01-10T03:20:21.082Z,4.77
2019-01-10T03:22:50.512Z,4.60
2019-01-10T03:25:19.872Z,4.70
2019-01-10T03:27:49.328Z,4.83
2019-01-10T03:30:19.851Z,4.90
2019-01-10T03:32:49.253Z,4.60
2019-01-10T03:35:18.526Z,4.70
2019-01-10T03:37:47.865Z,4.40
2019-01-10T03:40:19.310Z,4.50
2019-01-10T03:42:48.825Z,5.03
2019-01-10T03:45:20.426Z,5.17
2019-01-10T03:47:49.682Z,4.47
2019-01-10T03:50:18.974Z,4.80
2019-01-10T03:52:48.306Z,4.87
2019-01-10T03:55:17.669Z,4.43
2019-01-10T03:57:47.066Z,4.67
2019-01-10T04:00:19.191Z,4.43
2019-01-10T04:02:48.704Z,4.70
2019-01-10T04:05:18.069Z,5.00
2019-01-10T04:07:47.577Z,4.77
2019-01-10T04:10:17.103Z,4.70
2019-01-10T04:12:46.428Z,4.83
2019-01-10T04:15:16.430Z,5.07
2019-01-10T04:17:45.721Z,5.10
2019-01-10T04:20:16.711Z,5.17
2019-01-10T04:22:46.119Z,4.67
2019-01-10T04:25:15.884Z,5.23
2019-01-10T04:27:45.596Z,5.10
2019-01-10T04:30:19.863Z,4.27
2019-01-10T04:32:49.610Z,5.43
2019-01-10T04:35:19.218Z,5.00
2019-01-10T04:37:48.941Z,4.50
2019-01-10T04:40:21.967Z,5.53
2019-01-10T04:42:51.320Z,4.27
2019-01-10T04:45:20.580Z,4.90
2019-01-10T04:47:49.852Z,4.50
2019-01-10T04:50:19.273Z,4.57
2019-01-10T04:52:48.583Z,4.50
2019-01-10T04:55:17.841Z,4.10
2019-01-10T04:57:47.108Z,4.43
2019-01-10T05:00:24.672Z,4.40
2019-01-10T05:02:54.019Z,3.80
2019-01-10T05:05:23.327Z,4.60
2019-01-10T05:07:52.636Z,3.90
2019-01-10T05:10:22.217Z,3.77
2019-01-10T05:12:51.491Z,3.60
2019-01-10T05:15:20.843Z,3.97
2019-01-10T05:17:50.163Z,4.60
2019-01-10T05:20:20.568Z,4.60
2019-01-10T05:22:49.818Z,4.43
2019-01-10T05:25:19.125Z,4.90
2019-01-10T05:27:48.437Z,4.60
2019-01-10T05:30:23.245Z,5.10
2019-01-10T05:32:52.599Z,4.93
2019-01-10T05:35:21.854Z,4.77
2019-01-10T05:37:51.099Z,5.12
2019-01-10T05:40:20.419Z,5.30
2019-01-10T05:42:49.666Z,4.47
2019-01-10T05:45:19.142Z,4.83
2019-01-10T05:47:48.463Z,4.50
2019-01-10T05:50:18.381Z,4.90
2019-01-10T05:52:47.700Z,4.50
2019-01-10T05:55:19.240Z,4.73
2019-01-10T05:57:48.546Z,4.73
2019-01-10T06:00:28.054Z,5.15
2019-01-10T06:02:59.590Z,5.00
2019-01-10T06:05:29.265Z,4.80
2019-01-10T06:07:58.917Z,4.80
2019-01-10T06:10:32.550Z,5.20
2019-01-10T06:13:01.827Z,4.93
2019-01-10T06:15:31.137Z,4.30
2019-01-10T06:18:00.429Z,4.70
2019-01-10T06:20:30.127Z,4.77
2019-01-10T06:22:59.746Z,4.90
2019-01-10T06:25:29.035Z,4.90
2019-01-10T06:27:58.304Z,5.50
2019-01-10T06:30:27.645Z,4.93
2019-01-10T06:32:57.050Z,5.60
2019-01-10T06:35:26.399Z,5.20
2019-01-10T06:37:55.736Z,5.30
2019-01-10T06:40:25.932Z,5.10
2019-01-10T06:42:55.167Z,5.63
2019-01-10T06:45:24.493Z,5.00
2019-01-10T06:47:53.882Z,4.97
2019-01-10T06:50:23.187Z,5.20
2019-01-10T06:52:52.518Z,5.50
2019-01-10T06:55:24.242Z,5.67
2019-01-10T06:57:53.537Z,5.27
2019-01-10T07:00:24.925Z,6.07
2019-01-10T07:02:54.675Z,5.57
2019-01-10T07:05:23.996Z,5.50
2019-01-10T07:07:56.583Z,5.80
2019-01-10T07:10:29.863Z,5.47
2019-01-10T07:12:59.248Z,5.50
2019-01-10T07:15:28.623Z,5.13
2019-01-10T07:17:57.934Z,5.43
2019-01-10T07:20:27.226Z,5.23
2019-01-10T07:22:56.665Z,6.10
2019-01-10T07:25:26.057Z,6.33
2019-01-10T07:27:56.730Z,4.87
2019-01-10T07:30:35.786Z,5.63
2019-01-10T07:32:59.065Z,4.90
2019-01-10T07:35:28.327Z,5.17
2019-01-10T07:37:57.792Z,5.17
2019-01-10T07:40:27.936Z,5.57
2019-01-10T07:42:57.451Z,5.47
2019-01-10T07:45:27.929Z,5.90
2019-01-10T07:47:57.290Z,5.83
2019-01-10T07:50:44.755Z,5.60
2019-01-10T07:53:14.102Z,5.23
2019-01-10T07:55:43.443Z,5.30
2019-01-10T07:58:13.147Z,5.27
2019-01-10T08:00:42.566Z,5.80
2019-01-10T08:03:11.940Z,5.50
2019-01-10T08:08:33.121Z,4.83
2019-01-10T08:11:02.453Z,5.87
2019-01-10T08:13:31.735Z,5.77
2019-01-10T08:16:01.032Z,6.00
2019-01-10T08:18:30.392Z,6.27
2019-01-10T08:20:59.713Z,5.80
2019-01-10T08:23:30.003Z,5.47
2019-01-10T08:25:59.819Z,6.17
2019-01-10T08:28:29.161Z,5.73
2019-01-10T08:30:58.512Z,5.13
2019-01-10T08:33:27.808Z,5.60
2019-01-10T08:35:57.115Z,6.12
2019-01-10T08:38:26.408Z,5.83
2019-01-10T08:40:55.735Z,5.73
2019-01-10T08:43:25.028Z,5.90
2019-01-10T08:45:54.320Z,5.73
2019-01-10T08:48:23.665Z,5.53
2019-01-10T08:50:53.063Z,5.27
2019-01-10T08:53:22.354Z,6.43
2019-01-10T08:55:51.993Z,6.00
2019-01-10T08:58:21.295Z,5.90
2019-01-10T09:00:50.603Z,5.87
2019-01-10T09:03:20.013Z,5.90
2019-01-10T09:05:49.325Z,6.43
2019-01-10T09:08:18.700Z,6.00
2019-01-10T09:10:49.015Z,5.40
2019-01-10T09:13:18.286Z,5.63
2019-01-10T09:15:47.656Z,6.23
2019-01-10T09:18:17.062Z,5.90
2019-01-10T09:20:46.366Z,5.50
2019-01-10T09:23:15.663Z,5.70
2019-01-10T09:25:45.022Z,6.10
2019-01-10T09:28:14.355Z,5.90
2019-01-10T09:30:43.782Z,5.93
2019-01-10T09:33:13.070Z,6.70
2019-01-10T09:35:42.391Z,5.90
2019-01-10T09:38:11.721Z,6.37
2019-01-10T09:40:41.002Z,6.13
2019-01-10T09:43:10.367Z,5.80
2019-01-10T09:45:43.436Z,6.30
2019-01-10T09:48:11.075Z,6.10
2019-01-10T09:50:40.440Z,6.00
2019-01-10T09:53:09.770Z,6.13
2019-01-10T09:55:43.627Z,6.17
2019-01-10T09:58:15.116Z,5.70
2019-01-10T10:00:44.520Z,6.27
2019-01-10T10:03:14.823Z,6.40
2019-01-10T10:05:44.219Z,6.47
2019-01-10T10:08:13.514Z,5.60
2019-01-10T10:10:42.821Z,6.00
2019-01-10T10:13:12.201Z,5.80
2019-01-10T10:15:41.507Z,6.07
2019-01-10T10:18:10.817Z,5.67
2019-01-10T10:20:40.188Z,6.47
2019-01-10T10:23:09.589Z,6.80
2019-01-10T10:25:38.979Z,5.67
2019-01-10T10:28:08.431Z,5.53
2019-01-10T10:30:37.739Z,5.55
2019-01-10T10:33:07.042Z,5.50
2019-01-10T10:35:36.321Z,5.33
2019-01-10T10:38:05.641Z,5.80
2019-01-10T10:40:34.945Z,5.67
2019-01-10T10:43:04.303Z,6.17
2019-01-10T10:45:33.587Z,5.10
2019-01-10T10:48:02.913Z,5.27
2019-01-10T10:50:32.274Z,5.33
2019-01-10T10:53:03.163Z,4.93
2019-01-10T10:55:33.431Z,5.50
2019-01-10T10:58:02.714Z,5.20
2019-01-10T11:00:32.144Z,5.30
2019-01-10T11:03:01.467Z,5.23
2019-01-10T11:05:30.776Z,5.13
2019-01-10T11:08:00.371Z,5.20
2019-01-10T11:10:29.770Z,6.28
2019-01-10T11:12:59.098Z,5.30
2019-01-10T11:15:28.414Z,5.60
2019-01-10T11:17:57.821Z,5.93
2019-01-10T11:20:27.213Z,5.57
2019-01-10T11:22:56.513Z,5.00
2019-01-10T11:25:27.566Z,5.50
2019-01-10T11:27:57.520Z,5.63
2019-01-10T11:30:26.828Z,5.20
2019-01-10T11:32:56.127Z,5.07
2019-01-10T11:35:25.477Z,6.43
2019-01-10T11:37:54.758Z,5.23
2019-01-10T11:40:24.063Z,5.57
2019-01-10T11:42:53.424Z,5.80
2019-01-10T11:45:25.006Z,6.60
2019-01-10T11:47:54.302Z,5.87
2019-01-10T11:50:23.706Z,6.47
2019-01-10T11:52:53.069Z,6.37
2019-01-10T11:55:22.386Z,6.80
2019-01-10T11:57:51.726Z,6.33
2019-01-10T12:00:34.584Z,6.37
2019-01-10T12:03:05.802Z,7.30
2019-01-10T12:05:35.978Z,6.70
2019-01-10T12:08:05.261Z,6.87
2019-01-10T12:10:34.627Z,6.03
2019-01-10T12:13:03.979Z,6.83
2019-01-10T12:15:33.296Z,6.90
2019-01-10T12:18:02.646Z,6.53
2019-01-10T12:20:32.095Z,6.93
2019-01-10T12:23:01.467Z,7.10
2019-01-10T12:25:30.787Z,6.40
2019-01-10T12:28:00.141Z,6.60
2019-01-10T12:30:29.500Z,7.40
2019-01-10T12:32:59.089Z,8.40
2019-01-10T12:35:28.386Z,9.07
2019-01-10T12:37:57.718Z,9.40
2019-01-10T12:40:27.373Z,8.97
2019-01-10T12:42:56.743Z,9.20
2019-01-10T12:45:26.043Z,9.90
2019-01-10T12:47:55.446Z,10.20
2019-01-10T12:50:32.446Z,11.03
2019-01-10T12:53:05.059Z,10.93
2019-01-10T12:55:34.547Z,10.17
2019-01-10T12:58:03.848Z,9.23
2019-01-10T13:00:33.283Z,9.70
2019-01-10T13:03:02.636Z,9.97
2019-01-10T13:05:32.013Z,10.37
2019-01-10T13:08:03.836Z,10.43
2019-01-10T13:10:32.455Z,9.90
2019-01-10T13:13:02.560Z,9.60
2019-01-10T13:15:31.912Z,10.73
2019-01-10T13:18:01.608Z,10.40
2019-01-10T13:20:31.010Z,10.47
2019-01-10T13:23:00.339Z,10.00
2019-01-10T13:25:29.728Z,9.97
2019-01-10T13:27:59.102Z,9.63
2019-01-10T13:30:28.499Z,9.93
2019-01-10T13:32:58.429Z,10.27
2019-01-10T13:35:28.274Z,10.63
2019-01-10T13:37:57.650Z,11.07
2019-01-10T13:40:27.213Z,12.57
2019-01-10T13:42:56.599Z,11.17
2019-01-10T13:45:25.983Z,11.53
2019-01-10T13:47:55.547Z,12.45
2019-01-10T13:50:27.548Z,12.93
2019-01-10T13:52:56.898Z,12.20
2019-01-10T13:55:26.374Z,12.80
2019-01-10T13:57:56.024Z,12.47
2019-01-10T14:00:27.559Z,13.20
2019-01-10T14:02:57.268Z,12.20
2019-01-10T14:05:26.605Z,12.53
2019-01-10T14:07:56.235Z,12.17
2019-01-10T14:10:25.571Z,11.37
2019-01-10T14:12:55.215Z,11.90
2019-01-10T14:15:27.127Z,12.63
2019-01-10T14:17:56.427Z,13.07
2019-01-10T14:20:25.838Z,12.87
2019-01-10T14:22:55.234Z,14.17
2019-01-10T14:25:24.569Z,13.83
2019-01-10T14:27:59.466Z,14.17
2019-01-10T14:30:31.632Z,13.30
2019-01-10T14:33:00.999Z,14.13
2019-01-10T14:35:30.418Z,13.27
2019-01-10T14:37:59.725Z,12.77
2019-01-10T14:40:29.108Z,12.97
2019-01-10T14:42:58.408Z,13.73
2019-01-10T14:45:30.154Z,14.07
2019-01-10T14:48:01.912Z,12.53
2019-01-10T14:50:30.801Z,12.70
2019-01-10T14:53:00.513Z,12.50
2019-01-10T14:55:30.306Z,11.77
2019-01-10T14:57:59.650Z,11.93
2019-01-10T15:00:28.993Z,11.90
2019-01-10T15:02:58.816Z,12.00
2019-01-10T15:05:34.153Z,12.50
2019-01-10T15:07:59.929Z,11.60
2019-01-10T15:10:29.252Z,11.53
2019-01-10T15:12:58.609Z,11.40
2019-01-10T15:15:27.953Z,11.13
2019-01-10T15:17:57.225Z,11.83
2019-01-10T15:20:28.977Z,11.17
2019-01-10T15:22:58.455Z,10.70
2019-01-10T15:25:28.243Z,9.93
2019-01-10T15:27:57.647Z,10.67
2019-01-10T15:30:28.553Z,10.23
2019-01-10T15:32:57.877Z,11.10
2019-01-10T15:35:28.605Z,10.47
2019-01-10T15:37:58.273Z,11.17
2019-01-10T15:40:32.379Z,11.57
2019-01-10T15:43:03.158Z,10.23
2019-01-10T15:45:32.584Z,11.03
2019-01-10T15:48:01.893Z,10.70
2019-01-10T15:50:31.245Z,10.47
2019-01-10T15:53:00.620Z,10.60
2019-01-10T15:55:57.096Z,11.10
2019-01-10T15:58:29.324Z,9.80
2019-01-10T16:01:06.264Z,10.87
2019-01-10T16:03:35.605Z,10.80
2019-01-10T16:06:05.394Z,11.00
2019-01-10T16:08:34.731Z,11.80
2019-01-10T16:11:04.502Z,11.10
2019-01-10T16:13:36.566Z,11.17
2019-01-10T16:16:17.215Z,11.60
2019-01-10T16:18:46.620Z,12.33
2019-01-10T16:21:16.036Z,12.10
2019-01-10T16:23:46.662Z,10.83
2019-01-10T16:26:20.271Z,13.15
2019-01-10T16:28:52.431Z,12.83
2019-01-10T16:31:21.843Z,11.50
2019-01-10T16:33:52.235Z,11.53
2019-01-10T16:36:21.674Z,12.00
2019-01-10T16:38:54.628Z,12.43
2019-01-10T16:41:24.107Z,11.43
2019-01-10T16:43:53.480Z,11.97
2019-01-10T16:46:22.849Z,12.67
2019-01-10T16:48:52.170Z,12.97
2019-01-10T16:51:21.487Z,11.40
2019-01-10T16:53:51.280Z,14.65
2019-01-10T16:56:20.649Z,13.47
2019-01-10T16:58:51.785Z,12.73
2019-01-10T17:01:21.323Z,12.03
2019-01-10T17:03:50.667Z,11.60
2019-01-10T17:06:19.986Z,11.70
2019-01-10T17:08:49.373Z,11.27
2019-01-10T17:11:19.098Z,11.17
2019-01-10T17:13:48.482Z,11.97
2019-01-10T17:16:18.720Z,12.20
2019-01-10T17:18:55.967Z,12.53
2019-01-10T17:21:25.293Z,12.00
2019-01-10T17:23:54.683Z,13.60
2019-01-10T17:26:24.637Z,13.87
2019-01-10T17:28:54.239Z,14.37
2019-01-10T17:31:29.709Z,15.97
2019-01-10T17:34:00.051Z,15.47
2019-01-10T17:36:34.114Z,15.63
2019-01-10T17:39:07.724Z,15.27
2019-01-10T17:41:38.330Z,18.17
2019-01-10T17:44:07.756Z,14.80
2019-01-10T17:46:37.092Z,14.73
2019-01-10T17:49:06.496Z,15.13
2019-01-10T17:51:35.826Z,15.17
2019-01-10T17:54:05.418Z,13.87
2019-01-10T17:56:34.834Z,14.03
2019-01-10T17:59:04.315Z,12.53
2019-01-10T18:01:33.590Z,11.23
2019-01-10T18:04:02.989Z,10.70
2019-01-10T18:06:32.383Z,9.80
2019-01-10T18:09:01.729Z,9.40
2019-01-10T18:11:31.170Z,9.63
2019-01-10T18:14:00.556Z,9.77
2019-01-10T18:16:29.902Z,8.10
2019-01-10T18:18:59.243Z,9.43
2019-01-10T18:21:28.582Z,8.93
2019-01-10T18:23:57.934Z,9.20
2019-01-10T18:26:27.247Z,8.43
2019-01-10T18:28:56.615Z,8.23
2019-01-10T18:31:26.016Z,8.07
2019-01-10T18:36:30.024Z,8.30
2019-01-10T18:38:59.351Z,8.67
2019-01-10T18:44:03.379Z,8.57
2019-01-10T18:46:32.692Z,8.57
2019-01-10T18:49:02.104Z,7.87
2019-01-10T18:51:31.787Z,8.97
2019-01-10T18:54:01.135Z,8.30
2019-01-10T18:56:30.451Z,8.50
2019-01-10T18:58:59.839Z,8.63
2019-01-10T19:01:29.279Z,12.03
2019-01-10T19:03:58.549Z,12.10
2019-01-10T19:06:27.882Z,12.17
2019-01-10T19:08:57.560Z,8.73
2019-01-10T19:11:26.869Z,7.23
2019-01-10T19:13:56.197Z,8.10
2019-01-10T19:16:25.589Z,7.20
2019-01-10T19:18:54.955Z,7.57
2019-01-10T19:21:24.257Z,7.80
2019-01-10T19:23:53.571Z,8.43
2019-01-10T19:26:22.942Z,8.23
2019-01-10T19:28:52.353Z,8.23
2019-01-10T19:31:22.054Z,9.03
2019-01-10T19:33:51.372Z,7.77
2019-01-10T19:36:20.682Z,8.03
2019-01-10T19:38:50.092Z,7.00
2019-01-10T19:41:19.391Z,7.87
2019-01-10T19:43:48.711Z,7.63
2019-01-10T19:46:18.093Z,6.80
2019-01-10T19:48:47.501Z,8.00
2019-01-10T19:51:16.857Z,7.53
2019-01-10T19:53:46.244Z,7.17
2019-01-10T19:56:15.599Z,7.43
2019-01-10T19:58:44.945Z,7.33
2019-01-10T20:01:14.327Z,7.97
2019-01-10T20:03:44.020Z,7.50
2019-01-10T20:06:13.500Z,7.23
2019-01-10T20:08:42.874Z,8.20
2019-01-10T20:11:12.234Z,7.57
2019-01-10T20:13:41.542Z,7.60
2019-01-10T20:16:10.923Z,7.63
2019-01-10T20:18:40.347Z,8.03
2019-01-10T20:21:09.752Z,7.60
2019-01-10T20:23:39.153Z,7.73
2019-01-10T20:26:10.083Z,7.50
2019-01-10T20:28:39.405Z,8.27
2019-01-10T20:31:08.763Z,9.40
2019-01-10T20:33:38.049Z,7.70
2019-01-10T20:36:08.566Z,7.80
2019-01-10T20:38:38.267Z,7.50
2019-01-10T20:41:07.677Z,7.70
2019-01-10T20:43:36.954Z,7.83
2019-01-10T20:46:06.603Z,7.83
2019-01-10T20:48:38.823Z,8.23
2019-01-10T20:51:08.433Z,7.83
2019-01-10T20:53:38.005Z,7.63
2019-01-10T20:56:07.766Z,8.20
2019-01-10T20:58:37.298Z,7.67
2019-01-10T21:01:07.263Z,7.33
2019-01-10T21:03:36.822Z,7.97
2019-01-10T21:06:06.461Z,7.10
2019-01-10T21:08:36.224Z,7.80
2019-01-10T21:11:05.649Z,7.03
2019-01-10T21:13:35.038Z,7.57
2019-01-10T21:16:04.471Z,8.10
2019-01-10T21:18:33.863Z,8.37
2019-01-10T21:21:03.285Z,8.23
2019-01-10T21:23:32.672Z,8.00
2019-01-10T21:26:02.098Z,9.63
2019-01-10T21:28:31.468Z,8.97
2019-01-10T21:31:00.994Z,7.77
2019-01-10T21:33:30.705Z,8.00
2019-01-10T21:36:00.082Z,7.73
2019-01-10T21:38:29.572Z,8.87
2019-01-10T21:41:00.125Z,7.70
2019-01-10T21:43:29.509Z,8.17
2019-01-10T21:45:58.967Z,7.43
2019-01-10T21:48:28.417Z,7.87
2019-01-10T21:50:57.949Z,8.17
2019-01-10T21:53:27.298Z,7.60
2019-01-10T21:55:56.659Z,7.10
2019-01-10T21:58:26.091Z,7.77
2019-01-10T22:00:55.621Z,7.43
2019-01-10T22:03:26.299Z,7.00
2019-01-10T22:05:55.749Z,8.07
2019-01-10T22:08:25.169Z,8.43
2019-01-10T22:10:55.749Z,8.13
2019-01-10T22:13:25.148Z,8.60
2019-01-10T22:15:54.608Z,7.40
2019-01-10T22:18:23.951Z,7.53
2019-01-10T22:20:53.387Z,6.97
2019-01-10T22:23:22.711Z,8.90
2019-01-10T22:25:52.101Z,8.47
2019-01-10T22:28:21.522Z,8.47
2019-01-10T22:30:50.868Z,9.70
2019-01-10T22:33:20.261Z,9.40
2019-01-10T22:35:49.572Z,9.70
2019-01-10T22:38:19.096Z,8.33
2019-01-10T22:40:48.464Z,8.10
2019-01-10T22:43:17.967Z,9.77
2019-01-10T22:45:47.298Z,8.77
2019-01-10T22:48:16.668Z,8.27
2019-01-10T22:50:47.427Z,8.50
2019-01-10T22:53:16.777Z,8.60
2019-01-10T22:55:46.128Z,7.70
2019-01-10T22:58:15.501Z,8.17
2019-01-10T23:01:32.617Z,9.10
2019-01-10T23:04:02.239Z,8.60
2019-01-10T23:06:31.552Z,8.33
2019-01-10T23:09:01.957Z,7.40
2019-01-10T23:11:31.364Z,8.63
2019-01-10T23:14:01.832Z,8.30
2019-01-10T23:16:32.374Z,8.10
2019-01-10T23:19:02.025Z,7.40
2019-01-10T23:21:33.176Z,7.77
2019-01-10T23:24:11.051Z,6.50
2019-01-10T23:26:41.965Z,7.83
2019-01-10T23:29:11.275Z,7.57
2019-01-10T23:31:40.651Z,8.43
2019-01-10T23:34:11.301Z,8.93
2019-01-10T23:36:40.708Z,8.27
2019-01-10T23:39:26.108Z,9.18
2019-01-10T23:41:56.859Z,8.40
2019-01-10T23:44:26.143Z,8.37
2019-01-10T23:46:55.508Z,8.90
2019-01-10T23:49:24.900Z,8.57
2019-01-10T23:51:54.414Z,8.57
2019-01-10T23:54:23.801Z,8.40
2019-01-10T23:56:53.131Z,9.27
2019-01-10T23:59:22.531Z,9.10
